Time;durP1;ratioP1;P1;durP2;ratioP2;P2;SDS_P1;SDS_P2;PMS_P1;PMS_P2;Temp;Humidity;BMP_temperature;BMP_pressure;BME280_temperature;BME280_humidity;BME280_pressure;Samples;Min_cycle;Max_cycle;Signal;HPM_P1;HPM_P2
2021/12/07 00:01:05;;;;;;;3.78;3.47;;;;;;;;;;5021342;28;20227;-49
2021/12/07 00:03:31;;;;;;;4.72;4.18;;;;;;;;;;5025248;28;20571;-49
2021/12/07 00:05:57;;;;;;;4.78;4.28;;;;;;;;;;5033203;28;20664;-49
2021/12/07 00:08:25;;;;;;;5.95;4.07;;;;;;;;;;5026773;28;20183;-50
2021/12/07 00:10:51;;;;;;;4.97;4.15;;;;;;;;;;5026570;28;20176;-49
2021/12/07 00:13:18;;;;;;;5.57;4.22;;;;;;;;;;5031352;28;20184;-49
2021/12/07 00:15:44;;;;;;;4.53;4.10;;;;;;;;;;5032634;28;20225;-49
2021/12/07 00:18:10;;;;;;;4.28;3.85;;;;;;;;;;5031314;28;20186;-50
2021/12/07 00:20:36;;;;;;;4.10;3.70;;;;;;;;;;5031862;28;20192;-49
2021/12/07 00:23:05;;;;;;;4.63;3.80;;;;;;;;;;5031602;28;20790;-49
2021/12/07 00:25:31;;;;;;;3.75;3.45;;;;;;;;;;5026891;28;20239;-50
2021/12/07 00:27:57;;;;;;;3.80;3.40;;;;;;;;;;5029469;28;20190;-49
2021/12/07 00:30:28;;;;;;;4.28;3.80;;;;;;;;;;5029169;28;20172;-50
2021/12/07 00:33:08;;;;;;;4.22;3.63;;;;;;;;;;5028565;28;20196;-49
2021/12/07 00:35:34;;;;;;;4.32;3.92;;;;;;;;;;5019625;28;20165;-50
2021/12/07 00:38:02;;;;;;;4.20;3.80;;;;;;;;;;5013715;28;20528;-49
2021/12/07 00:40:28;;;;;;;4.40;4.00;;;;;;;;;;5015811;28;20202;-49
2021/12/07 00:42:54;;;;;;;4.32;3.75;;;;;;;;;;5024529;28;20208;-50
2021/12/07 00:45:22;;;;;;;3.97;3.58;;;;;;;;;;5017207;28;20568;-50
2021/12/07 00:47:51;;;;;;;4.10;3.70;;;;;;;;;;5031390;28;20211;-50
2021/12/07 00:50:18;;;;;;;4.47;3.47;;;;;;;;;;5033080;28;20184;-49
2021/12/07 00:52:44;;;;;;;4.40;4.00;;;;;;;;;;5025237;28;20484;-50
2021/12/07 00:55:12;;;;;;;4.03;3.67;;;;;;;;;;5027975;28;20184;-49
2021/12/07 00:57:38;;;;;;;4.40;3.63;;;;;;;;;;5028716;28;20207;-49
2021/12/07 01:00:06;;;;;;;3.92;3.53;;;;;;;;;;5030608;28;20188;-50
2021/12/07 01:02:32;;;;;;;4.50;3.70;;;;;;;;;;5025820;28;20204;-49
2021/12/07 01:05:08;;;;;;;3.80;3.40;;;;;;;;;;5032574;28;20210;-49
2021/12/07 01:26:36;;;;;;;4.35;3.42;;;;;;;;;;5029394;28;20237;-49
2021/12/07 01:29:02;;;;;;;4.35;3.85;;;;;;;;;;5035302;28;20479;-49
2021/12/07 01:31:54;;;;;;;3.60;3.30;;;;;;;;;;5035744;28;20183;-50
2021/12/07 01:37:12;;;;;;;4.05;3.65;;;;;;;;;;5031192;28;20306;-49
2021/12/07 01:40:10;;;;;;;3.95;3.55;;;;;;;;;;5032683;28;20567;-49
2021/12/07 01:43:05;;;;;;;4.05;3.65;;;;;;;;;;5032476;28;20475;-50
2021/12/07 02:01:40;;;;;;;3.90;3.50;;;;;;;;;;5031055;28;20255;-49
2021/12/07 02:04:06;;;;;;;3.63;3.30;;;;;;;;;;5032678;28;20203;-49
2021/12/07 02:06:32;;;;;;;3.88;3.47;;;;;;;;;;5028854;28;20180;-49
2021/12/07 02:08:58;;;;;;;3.38;3.08;;;;;;;;;;5034611;28;20552;-49
2021/12/07 02:11:24;;;;;;;4.30;3.53;;;;;;;;;;5033389;28;20203;-49
2021/12/07 02:16:19;;;;;;;3.90;3.42;;;;;;;;;;5023912;28;20261;-49
2021/12/07 02:18:45;;;;;;;3.92;3.53;;;;;;;;;;5026610;28;20194;-49
2021/12/07 02:21:30;;;;;;;3.35;3.03;;;;;;;;;;5026352;28;20203;-49
2021/12/07 02:23:56;;;;;;;3.45;3.15;;;;;;;;;;5025742;28;20562;-49
2021/12/07 02:26:22;;;;;;;3.65;3.33;;;;;;;;;;5032165;28;20208;-49
2021/12/07 02:28:49;;;;;;;4.25;3.45;;;;;;;;;;5033205;28;20725;-50
2021/12/07 02:31:15;;;;;;;3.88;3.47;;;;;;;;;;5031685;28;20413;-49
2021/12/07 02:33:42;;;;;;;3.50;3.20;;;;;;;;;;5033008;28;20199;-50
2021/12/07 02:36:08;;;;;;;3.88;3.40;;;;;;;;;;5023565;28;20234;-50
2021/12/07 02:38:34;;;;;;;3.65;3.30;;;;;;;;;;5033021;28;20771;-49
2021/12/07 02:41:01;;;;;;;3.80;3.40;;;;;;;;;;5032664;28;20187;-49
2021/12/07 02:43:27;;;;;;;3.55;3.05;;;;;;;;;;5031661;28;20203;-49
2021/12/07 02:45:53;;;;;;;3.80;3.38;;;;;;;;;;5033359;28;20218;-49
2021/12/07 02:48:22;;;;;;;3.63;3.33;;;;;;;;;;5034292;28;20209;-50
2021/12/07 02:50:50;;;;;;;3.67;3.25;;;;;;;;;;5033341;28;20207;-49
2021/12/07 02:53:18;;;;;;;3.50;3.20;;;;;;;;;;5031428;28;20314;-49
2021/12/07 02:55:44;;;;;;;3.78;3.38;;;;;;;;;;5028075;28;20275;-49
2021/12/07 02:58:10;;;;;;;3.58;3.28;;;;;;;;;;5032562;28;20190;-50
2021/12/07 03:00:44;;;;;;;3.78;3.47;;;;;;;;;;5023938;28;20200;-49
2021/12/07 03:03:12;;;;;;;3.58;3.28;;;;;;;;;;5033896;28;20285;-49
2021/12/07 03:05:48;;;;;;;3.67;3.35;;;;;;;;;;5026552;28;20204;-50
2021/12/07 03:08:43;;;;;;;3.97;3.05;;;;;;;;;;5028154;28;20184;-49
2021/12/07 03:27:29;;;;;;;3.90;3.42;;;;;;;;;;5032130;28;20210;-50
2021/12/07 03:29:55;;;;;;;3.35;3.00;;;;;;;;;;5033433;28;20226;-49
2021/12/07 03:32:21;;;;;;;3.38;3.05;;;;;;;;;;5030348;28;20186;-49
2021/12/07 03:34:47;;;;;;;3.33;3.03;;;;;;;;;;5033298;28;20605;-49
2021/12/07 03:37:13;;;;;;;3.13;2.83;;;;;;;;;;5028555;28;20189;-49
2021/12/07 03:39:39;;;;;;;3.17;2.90;;;;;;;;;;5030835;28;20270;-50
2021/12/07 03:42:05;;;;;;;3.63;3.30;;;;;;;;;;5029215;28;20543;-49
2021/12/07 03:44:33;;;;;;;3.20;2.83;;;;;;;;;;5032013;28;20257;-49
2021/12/07 03:46:59;;;;;;;3.17;2.88;;;;;;;;;;5032843;28;20278;-49
2021/12/07 03:49:25;;;;;;;3.55;3.00;;;;;;;;;;5031237;28;20187;-49
2021/12/07 03:51:51;;;;;;;3.25;2.95;;;;;;;;;;5032663;28;20183;-49
2021/12/07 03:54:17;;;;;;;3.38;3.08;;;;;;;;;;5026347;28;20479;-49
2021/12/07 03:56:43;;;;;;;2.83;2.63;;;;;;;;;;5029573;28;20219;-51
2021/12/07 03:59:09;;;;;;;3.15;2.85;;;;;;;;;;5029883;28;20191;-49
2021/12/07 04:01:35;;;;;;;2.97;2.75;;;;;;;;;;5031392;28;20203;-49
2021/12/07 04:04:03;;;;;;;2.92;2.72;;;;;;;;;;5028997;28;20292;-49
2021/12/07 04:06:29;;;;;;;3.05;2.67;;;;;;;;;;5022147;28;20211;-49
2021/12/07 04:08:55;;;;;;;2.80;2.60;;;;;;;;;;5030381;28;20559;-49
2021/12/07 04:11:21;;;;;;;3.00;2.70;;;;;;;;;;5031885;28;20215;-49
2021/12/07 04:13:47;;;;;;;3.17;2.88;;;;;;;;;;5032248;28;20234;-49
2021/12/07 04:16:14;;;;;;;3.25;2.95;;;;;;;;;;5032655;28;20179;-50
2021/12/07 04:18:41;;;;;;;2.85;2.50;;;;;;;;;;5020365;28;20270;-50
2021/12/07 04:21:07;;;;;;;2.90;2.70;;;;;;;;;;5024999;28;20188;-49
2021/12/07 04:23:33;;;;;;;2.80;2.60;;;;;;;;;;5032086;28;20632;-49
2021/12/07 04:26:00;;;;;;;3.00;2.80;;;;;;;;;;5023289;28;20214;-49
2021/12/07 04:28:26;;;;;;;2.67;2.47;;;;;;;;;;5023149;28;20214;-50
2021/12/07 04:30:52;;;;;;;2.95;2.65;;;;;;;;;;5030676;28;20582;-49
2021/12/07 04:33:18;;;;;;;2.88;2.60;;;;;;;;;;5027223;28;20267;-49
2021/12/07 04:35:45;;;;;;;2.70;2.50;;;;;;;;;;5024101;28;20587;-49
2021/12/07 04:38:12;;;;;;;2.78;2.58;;;;;;;;;;5023407;28;20593;-50
2021/12/07 04:40:38;;;;;;;3.00;2.63;;;;;;;;;;5031672;28;20192;-49
2021/12/07 04:43:05;;;;;;;2.53;2.33;;;;;;;;;;5024470;28;20563;-50
2021/12/07 04:59:19;;;;;;;2.80;2.60;;;;;;;;;;5035570;28;20206;-49
2021/12/07 05:01:45;;;;;;;3.00;2.72;;;;;;;;;;5026992;28;20196;-49
2021/12/07 05:04:16;;;;;;;2.15;2.00;;;;;;;;;;5024843;28;20547;-49
2021/12/07 05:06:52;;;;;;;2.60;2.40;;;;;;;;;;5020012;28;20226;-49
2021/12/07 05:09:35;;;;;;;2.33;2.13;;;;;;;;;;5032522;28;20359;-49
2021/12/07 05:14:33;;;;;;;2.28;2.08;;;;;;;;;;5026511;28;20187;-49
2021/12/07 05:17:20;;;;;;;2.50;2.30;;;;;;;;;;5028028;28;20184;-50
2021/12/07 05:38:43;;;;;;;2.78;2.53;;;;;;;;;;5024239;28;20505;-50
2021/12/07 05:41:09;;;;;;;2.45;2.00;;;;;;;;;;5028049;28;20266;-49
2021/12/07 05:43:36;;;;;;;2.95;2.40;;;;;;;;;;5031983;28;20466;-48
2021/12/07 05:46:02;;;;;;;6.57;2.67;;;;;;;;;;5035069;28;20230;-47
2021/12/07 05:48:28;;;;;;;6.13;2.70;;;;;;;;;;5031688;28;20246;-53
2021/12/07 05:50:54;;;;;;;6.43;2.60;;;;;;;;;;5029106;28;20194;-49
2021/12/07 05:53:20;;;;;;;5.25;2.75;;;;;;;;;;5035018;28;20187;-51
2021/12/07 05:55:46;;;;;;;3.92;2.67;;;;;;;;;;5026950;28;20202;-61
2021/12/07 05:58:12;;;;;;;2.50;2.00;;;;;;;;;;5034392;28;20195;-58
2021/12/07 06:00:42;;;;;;;3.80;2.30;;;;;;;;;;5030302;28;20219;-48
2021/12/07 06:03:09;;;;;;;3.47;1.95;;;;;;;;;;5031870;28;20187;-57
2021/12/07 06:05:35;;;;;;;2.67;2.33;;;;;;;;;;5025436;28;20211;-59
2021/12/07 06:08:02;;;;;;;5.97;2.63;;;;;;;;;;5030561;28;20180;-49
2021/12/07 06:10:28;;;;;;;2.65;2.20;;;;;;;;;;5030967;28;20212;-49
2021/12/07 06:12:55;;;;;;;3.70;2.40;;;;;;;;;;5031227;28;20214;-48
2021/12/07 06:15:23;;;;;;;3.67;2.13;;;;;;;;;;5033429;28;20231;-48
2021/12/07 06:17:50;;;;;;;2.60;1.98;;;;;;;;;;5027472;28;20222;-63
2021/12/07 06:20:16;;;;;;;5.20;2.10;;;;;;;;;;5028282;28;20187;-49
2021/12/07 06:22:43;;;;;;;5.00;2.25;;;;;;;;;;5024494;28;20198;-47
2021/12/07 06:25:10;;;;;;;3.05;2.00;;;;;;;;;;5019901;28;20204;-50
2021/12/07 06:27:36;;;;;;;2.53;2.10;;;;;;;;;;5032372;28;20476;-56
2021/12/07 06:30:02;;;;;;;4.25;2.03;;;;;;;;;;5029358;28;20462;-59
2021/12/07 06:32:28;;;;;;;2.75;1.90;;;;;;;;;;5030562;28;20476;-49
2021/12/07 06:34:54;;;;;;;2.15;1.90;;;;;;;;;;5028997;28;20191;-48
2021/12/07 06:37:20;;;;;;;4.57;2.13;;;;;;;;;;5030836;28;20184;-48
2021/12/07 06:39:46;;;;;;;4.20;2.30;;;;;;;;;;5025180;28;20261;-54
2021/12/07 06:42:12;;;;;;;2.05;1.77;;;;;;;;;;5025728;28;20200;-47
2021/12/07 06:44:39;;;;;;;3.30;1.70;;;;;;;;;;5022186;28;20215;-48
2021/12/07 06:47:05;;;;;;;2.17;1.98;;;;;;;;;;5027461;28;20172;-48
2021/12/07 06:49:31;;;;;;;3.60;1.90;;;;;;;;;;5033547;28;20180;-47
2021/12/07 06:51:58;;;;;;;1.98;1.70;;;;;;;;;;5029222;28;20187;-47
2021/12/07 06:54:25;;;;;;;2.80;1.90;;;;;;;;;;5025422;28;20180;-47
2021/12/07 06:56:52;;;;;;;2.05;1.85;;;;;;;;;;5030696;28;20233;-49
2021/12/07 06:59:18;;;;;;;2.72;2.20;;;;;;;;;;5033578;28;20180;-60
2021/12/07 07:01:44;;;;;;;5.38;2.00;;;;;;;;;;5031521;28;20207;-46
2021/12/07 07:04:12;;;;;;;3.65;1.83;;;;;;;;;;5027092;28;20267;-49
2021/12/07 07:06:39;;;;;;;5.43;2.00;;;;;;;;;;5034244;28;20249;-49
2021/12/07 07:09:05;;;;;;;1.95;1.77;;;;;;;;;;5030377;28;20218;-49
2021/12/07 07:11:31;;;;;;;4.78;2.08;;;;;;;;;;5022400;28;20176;-49
2021/12/07 07:13:58;;;;;;;2.75;1.95;;;;;;;;;;5027474;28;20179;-49
2021/12/07 07:16:24;;;;;;;5.43;2.22;;;;;;;;;;5029607;28;20583;-49
2021/12/07 07:18:50;;;;;;;2.53;2.17;;;;;;;;;;5033243;28;20329;-49
2021/12/07 07:21:16;;;;;;;4.18;2.03;;;;;;;;;;5028251;28;20195;-50
2021/12/07 07:23:43;;;;;;;5.53;2.30;;;;;;;;;;5027107;28;20180;-50
2021/12/07 07:26:09;;;;;;;3.83;2.40;;;;;;;;;;5026635;28;20207;-49
2021/12/07 07:28:35;;;;;;;7.13;2.42;;;;;;;;;;5021501;28;20494;-49
2021/12/07 07:31:03;;;;;;;2.63;2.20;;;;;;;;;;5027493;28;20573;-49
2021/12/07 07:33:29;;;;;;;6.28;2.17;;;;;;;;;;5033274;28;20206;-49
2021/12/07 07:35:55;;;;;;;5.38;2.10;;;;;;;;;;5021755;28;20184;-49
2021/12/07 07:38:21;;;;;;;4.28;2.25;;;;;;;;;;5036053;28;20229;-49
2021/12/07 07:40:48;;;;;;;4.72;2.33;;;;;;;;;;5028573;28;20318;-48
2021/12/07 07:43:16;;;;;;;7.20;2.20;;;;;;;;;;5032499;28;20210;-46
2021/12/07 07:45:45;;;;;;;3.60;2.38;;;;;;;;;;5022777;28;20607;-54
2021/12/07 07:48:13;;;;;;;4.20;2.58;;;;;;;;;;5028547;28;20246;-48
2021/12/07 07:50:39;;;;;;;2.85;1.98;;;;;;;;;;5032162;28;20238;-48
2021/12/07 07:53:06;;;;;;;5.57;2.40;;;;;;;;;;5032093;28;20229;-48
2021/12/07 07:55:33;;;;;;;4.70;2.15;;;;;;;;;;5032304;28;20680;-46
2021/12/07 07:57:59;;;;;;;3.20;2.20;;;;;;;;;;5032958;28;20196;-47
2021/12/07 08:00:25;;;;;;;3.20;2.40;;;;;;;;;;5032032;28;20551;-50
2021/12/07 08:02:52;;;;;;;4.35;1.90;;;;;;;;;;5031932;28;20190;-53
2021/12/07 08:05:18;;;;;;;3.67;2.35;;;;;;;;;;5027206;28;20246;-48
2021/12/07 08:07:47;;;;;;;3.67;2.22;;;;;;;;;;5029816;28;20184;-48
2021/12/07 08:10:15;;;;;;;3.03;2.20;;;;;;;;;;5032170;28;20206;-48
2021/12/07 08:12:41;;;;;;;2.92;1.77;;;;;;;;;;5024083;28;20183;-48
2021/12/07 08:15:07;;;;;;;3.72;2.13;;;;;;;;;;5031968;28;20234;-48
2021/12/07 08:17:33;;;;;;;3.47;2.15;;;;;;;;;;5031027;28;20208;-48
2021/12/07 08:19:59;;;;;;;3.03;2.00;;;;;;;;;;5030569;28;20175;-48
2021/12/07 08:22:28;;;;;;;7.20;1.92;;;;;;;;;;5022782;28;20184;-48
2021/12/07 08:24:54;;;;;;;2.50;2.30;;;;;;;;;;5028191;28;20207;-48
2021/12/07 08:27:20;;;;;;;3.72;1.75;;;;;;;;;;5032042;28;20207;-48
2021/12/07 08:29:46;;;;;;;2.67;2.00;;;;;;;;;;5034413;28;20247;-48
2021/12/07 08:32:12;;;;;;;2.50;1.98;;;;;;;;;;5035069;28;20177;-48
2021/12/07 08:34:38;;;;;;;4.45;1.70;;;;;;;;;;5034737;28;20559;-48
2021/12/07 08:37:04;;;;;;;2.55;1.92;;;;;;;;;;5032259;28;20197;-48
2021/12/07 08:39:34;;;;;;;4.93;2.00;;;;;;;;;;5039033;28;20535;-48
2021/12/07 08:42:00;;;;;;;2.70;1.90;;;;;;;;;;5033623;28;20234;-48
2021/12/07 08:44:26;;;;;;;2.72;1.88;;;;;;;;;;5040589;28;20184;-48
2021/12/07 08:46:52;;;;;;;3.38;1.92;;;;;;;;;;5038023;28;20218;-48
2021/12/07 08:49:20;;;;;;;3.15;1.70;;;;;;;;;;5040362;28;20211;-48
2021/12/07 08:51:46;;;;;;;4.78;1.88;;;;;;;;;;5034645;28;20525;-48
2021/12/07 08:54:25;;;;;;;2.90;1.80;;;;;;;;;;5031370;28;20226;-48
2021/12/07 09:02:07;;;;;;;2.22;1.80;;;;;;;;;;5033269;28;20194;-48
2021/12/07 09:04:34;;;;;;;3.28;1.98;;;;;;;;;;5034272;28;20188;-48
2021/12/07 09:07:00;;;;;;;2.05;1.58;;;;;;;;;;5033244;28;20175;-48
2021/12/07 09:09:28;;;;;;;3.03;1.90;;;;;;;;;;5034922;28;20191;-48
2021/12/07 09:11:54;;;;;;;2.40;1.63;;;;;;;;;;5029586;28;20446;-48
2021/12/07 09:14:22;;;;;;;1.70;1.60;;;;;;;;;;5033961;28;20179;-48
2021/12/07 09:16:48;;;;;;;2.20;1.50;;;;;;;;;;5036511;28;20172;-48
2021/12/07 09:19:15;;;;;;;1.92;1.70;;;;;;;;;;5030884;28;20188;-48
2021/12/07 09:21:41;;;;;;;2.90;1.60;;;;;;;;;;5028821;28;20233;-48
2021/12/07 09:24:07;;;;;;;4.53;1.88;;;;;;;;;;5034794;28;20195;-48
2021/12/07 09:26:33;;;;;;;2.38;1.70;;;;;;;;;;5035305;28;20211;-48
2021/12/07 09:28:59;;;;;;;1.77;1.60;;;;;;;;;;5032718;28;20180;-48
2021/12/07 09:31:25;;;;;;;1.60;1.50;;;;;;;;;;5034635;28;20207;-48
2021/12/07 09:33:53;;;;;;;2.05;1.77;;;;;;;;;;5033579;28;20180;-48
2021/12/07 09:36:19;;;;;;;1.65;1.48;;;;;;;;;;5019970;28;20181;-48
2021/12/07 09:38:45;;;;;;;1.70;1.60;;;;;;;;;;5033745;28;20211;-48
2021/12/07 09:41:11;;;;;;;2.20;1.70;;;;;;;;;;5028443;28;20194;-48
2021/12/07 09:43:38;;;;;;;2.72;1.80;;;;;;;;;;5033004;28;20199;-48
2021/12/07 09:46:05;;;;;;;1.83;1.50;;;;;;;;;;5027361;28;20208;-48
2021/12/07 09:48:31;;;;;;;3.47;1.63;;;;;;;;;;5032940;28;20187;-47
2021/12/07 09:50:57;;;;;;;1.60;1.50;;;;;;;;;;5031957;28;20231;-48
2021/12/07 09:53:24;;;;;;;1.48;1.38;;;;;;;;;;5035130;28;20563;-47
2021/12/07 09:55:51;;;;;;;2.17;1.63;;;;;;;;;;5033875;28;20278;-47
2021/12/07 09:58:17;;;;;;;1.42;1.33;;;;;;;;;;5035116;28;20202;-48
2021/12/07 10:00:44;;;;;;;1.40;1.30;;;;;;;;;;5033427;28;20191;-48
2021/12/07 10:03:11;;;;;;;1.40;1.30;;;;;;;;;;5035069;28;20183;-48
2021/12/07 10:05:40;;;;;;;1.80;1.42;;;;;;;;;;5033520;28;20668;-48
2021/12/07 10:08:06;;;;;;;1.65;1.55;;;;;;;;;;5032837;28;20176;-48
2021/12/07 10:10:35;;;;;;;1.30;1.20;;;;;;;;;;5032739;28;20282;-48
2021/12/07 10:13:02;;;;;;;2.03;1.40;;;;;;;;;;5026762;28;20559;-48
2021/12/07 10:15:28;;;;;;;1.50;1.40;;;;;;;;;;5022775;28;20455;-48
2021/12/07 10:18:06;;;;;;;1.52;1.40;;;;;;;;;;5026737;28;20239;-48
2021/12/07 10:20:40;;;;;;;1.90;1.48;;;;;;;;;;5028866;28;20188;-48
2021/12/07 10:23:27;;;;;;;1.60;1.50;;;;;;;;;;5041252;28;20447;-48
2021/12/07 10:25:59;;;;;;;2.10;1.52;;;;;;;;;;5027858;28;20199;-48
2021/12/07 10:28:25;;;;;;;1.20;1.10;;;;;;;;;;5034451;28;20237;-48
2021/12/07 10:30:51;;;;;;;1.40;1.30;;;;;;;;;;5033918;28;20175;-48
2021/12/07 10:33:28;;;;;;;3.05;1.40;;;;;;;;;;5028261;28;20188;-48
2021/12/07 10:36:05;;;;;;;1.40;1.30;;;;;;;;;;5034761;28;20183;-48
2021/12/07 10:38:32;;;;;;;1.48;1.38;;;;;;;;;;5030728;28;20183;-48
2021/12/07 10:40:59;;;;;;;1.67;1.58;;;;;;;;;;5025605;28;20193;-48
2021/12/07 10:43:40;;;;;;;1.30;1.20;;;;;;;;;;5034036;28;20203;-49
2021/12/07 10:46:25;;;;;;;1.27;1.17;;;;;;;;;;5034620;28;20214;-48
2021/12/07 10:48:51;;;;;;;1.25;1.17;;;;;;;;;;5032314;28;20195;-48
2021/12/07 10:51:17;;;;;;;1.85;1.42;;;;;;;;;;5032296;28;20199;-48
2021/12/07 10:53:55;;;;;;;1.17;1.05;;;;;;;;;;5029300;28;20614;-48
2021/12/07 10:56:30;;;;;;;1.30;1.20;;;;;;;;;;5027025;28;20188;-48
2021/12/07 10:59:07;;;;;;;3.03;1.50;;;;;;;;;;5034198;28;20443;-48
2021/12/07 11:01:37;;;;;;;1.25;1.15;;;;;;;;;;5022630;28;20564;-50
2021/12/07 11:04:21;;;;;;;1.92;1.25;;;;;;;;;;5026856;28;20234;-46
2021/12/07 11:07:06;;;;;;;1.98;1.30;;;;;;;;;;5020098;28;20204;-47
2021/12/07 11:09:38;;;;;;;2.50;1.40;;;;;;;;;;5030071;28;20176;-46
2021/12/07 11:12:07;;;;;;;1.35;1.25;;;;;;;;;;5024458;28;20279;-47
2021/12/07 11:14:49;;;;;;;2.15;1.35;;;;;;;;;;5031886;28;20261;-48
2021/12/07 11:17:17;;;;;;;2.55;1.42;;;;;;;;;;5032113;28;20182;-47
2021/12/07 11:19:43;;;;;;;2.95;1.40;;;;;;;;;;5028097;28;20205;-47
2021/12/07 11:22:12;;;;;;;2.30;1.40;;;;;;;;;;5026716;28;20185;-46
2021/12/07 11:24:39;;;;;;;2.28;1.60;;;;;;;;;;5032752;28;20559;-47
2021/12/07 11:30:10;;;;;;;2.85;1.70;;;;;;;;;;5026650;28;20262;-47
2021/12/07 11:32:37;;;;;;;1.92;1.23;;;;;;;;;;5026564;28;20207;-47
2021/12/07 11:35:08;;;;;;;1.80;1.17;;;;;;;;;;5032769;28;20630;-47
2021/12/07 11:37:37;;;;;;;4.50;1.52;;;;;;;;;;5027178;28;21046;-47
2021/12/07 11:40:04;;;;;;;2.63;1.58;;;;;;;;;;5025215;28;20188;-46
2021/12/07 11:42:34;;;;;;;3.17;1.23;;;;;;;;;;5031215;28;20278;-49
2021/12/07 11:45:03;;;;;;;1.92;1.25;;;;;;;;;;5033294;28;20500;-47
2021/12/07 11:47:31;;;;;;;2.03;1.25;;;;;;;;;;5031945;28;20169;-47
2021/12/07 11:49:59;;;;;;;1.73;1.13;;;;;;;;;;5030972;28;20262;-44
2021/12/07 11:52:25;;;;;;;3.25;1.20;;;;;;;;;;5032847;28;20461;-47
2021/12/07 11:54:51;;;;;;;2.00;1.40;;;;;;;;;;5024158;28;20543;-46
2021/12/07 11:57:18;;;;;;;1.98;1.52;;;;;;;;;;5026534;28;20215;-47
2021/12/07 11:59:45;;;;;;;1.45;1.20;;;;;;;;;;5021732;28;20184;-46
2021/12/07 12:02:11;;;;;;;1.65;1.20;;;;;;;;;;5031528;28;20755;-49
2021/12/07 12:04:39;;;;;;;4.43;1.10;;;;;;;;;;5028564;28;20184;-51
2021/12/07 12:07:08;;;;;;;5.75;1.52;;;;;;;;;;5032109;28;20164;-50
2021/12/07 12:09:35;;;;;;;1.58;1.00;;;;;;;;;;5031942;28;20192;-49
2021/12/07 12:12:16;;;;;;;3.33;1.20;;;;;;;;;;5024062;28;20187;-48
2021/12/07 12:15:01;;;;;;;1.80;1.35;;;;;;;;;;5024425;28;20191;-47
2021/12/07 12:17:46;;;;;;;1.20;1.10;;;;;;;;;;5030617;28;20187;-46
2021/12/07 12:20:18;;;;;;;2.05;1.00;;;;;;;;;;5029067;28;20176;-47
2021/12/07 12:22:50;;;;;;;4.18;1.00;;;;;;;;;;5027485;28;20188;-48
2021/12/07 12:25:21;;;;;;;2.65;1.13;;;;;;;;;;5021651;28;20246;-48
2021/12/07 12:27:48;;;;;;;1.80;1.10;;;;;;;;;;5032828;28;20183;-46
2021/12/07 12:30:27;;;;;;;2.00;1.20;;;;;;;;;;5032147;28;20602;-46
2021/12/07 12:32:54;;;;;;;1.13;1.02;;;;;;;;;;5033540;28;20430;-46
2021/12/07 12:35:42;;;;;;;1.33;0.90;;;;;;;;;;5032824;28;20168;-46
2021/12/07 12:38:28;;;;;;;4.07;1.20;;;;;;;;;;5025565;28;20187;-46
2021/12/07 12:40:59;;;;;;;2.20;1.10;;;;;;;;;;5022736;28;20204;-46
2021/12/07 12:43:42;;;;;;;2.03;1.27;;;;;;;;;;5030533;28;20645;-46
2021/12/07 12:46:09;;;;;;;1.60;1.30;;;;;;;;;;5032601;28;20192;-46
2021/12/07 12:48:35;;;;;;;1.20;1.10;;;;;;;;;;5032046;28;20611;-46
2021/12/07 12:51:01;;;;;;;4.00;1.25;;;;;;;;;;5032230;28;20463;-46
2021/12/07 12:53:32;;;;;;;3.58;1.20;;;;;;;;;;5032900;28;20251;-46
2021/12/07 12:56:05;;;;;;;2.78;1.20;;;;;;;;;;5014924;28;20232;-46
2021/12/07 12:58:33;;;;;;;2.65;0.90;;;;;;;;;;5023389;28;20428;-46
2021/12/07 13:01:05;;;;;;;1.55;0.98;;;;;;;;;;5033059;28;20169;-46
2021/12/07 13:03:51;;;;;;;2.78;1.23;;;;;;;;;;5032610;28;20188;-46
2021/12/07 13:06:21;;;;;;;3.22;1.25;;;;;;;;;;5022167;28;20242;-46
2021/12/07 13:08:56;;;;;;;1.23;0.98;;;;;;;;;;5020387;28;20203;-46
2021/12/07 13:11:38;;;;;;;2.17;1.30;;;;;;;;;;5022203;28;20528;-46
2021/12/07 13:14:05;;;;;;;1.30;1.17;;;;;;;;;;5031283;28;20203;-46
2021/12/07 13:16:33;;;;;;;0.90;0.90;;;;;;;;;;5022927;28;20185;-46
2021/12/07 13:19:06;;;;;;;1.20;1.10;;;;;;;;;;5029822;28;20183;-46
2021/12/07 13:21:37;;;;;;;1.27;1.05;;;;;;;;;;5027584;28;20214;-46
2021/12/07 13:24:08;;;;;;;1.13;1.02;;;;;;;;;;5030810;28;20202;-46
2021/12/07 13:26:35;;;;;;;0.93;0.88;;;;;;;;;;5035439;28;20210;-46
2021/12/07 13:29:05;;;;;;;1.70;0.90;;;;;;;;;;5032750;28;20183;-46
2021/12/07 13:31:42;;;;;;;1.05;1.00;;;;;;;;;;5029813;28;20563;-45
2021/12/07 13:34:08;;;;;;;2.50;1.10;;;;;;;;;;5033528;28;20195;-45
2021/12/07 13:36:37;;;;;;;4.35;1.10;;;;;;;;;;5035987;28;20180;-45
2021/12/07 13:39:07;;;;;;;1.67;0.90;;;;;;;;;;5035642;28;20259;-46
2021/12/07 13:41:34;;;;;;;1.52;1.00;;;;;;;;;;5027113;28;20196;-46
2021/12/07 13:44:00;;;;;;;1.23;0.90;;;;;;;;;;5032991;28;20184;-46
2021/12/07 13:46:27;;;;;;;1.85;1.10;;;;;;;;;;5034440;28;20237;-46
2021/12/07 13:49:03;;;;;;;1.10;0.93;;;;;;;;;;5023892;28;20268;-46
2021/12/07 13:51:29;;;;;;;2.08;1.10;;;;;;;;;;5018780;28;20492;-45
2021/12/07 13:53:55;;;;;;;0.95;0.80;;;;;;;;;;5015294;28;20567;-45
2021/12/07 13:56:21;;;;;;;1.85;0.98;;;;;;;;;;5035216;28;20192;-45
2021/12/07 13:58:53;;;;;;;1.10;1.00;;;;;;;;;;5033781;28;20210;-45
2021/12/07 14:01:20;;;;;;;0.93;0.80;;;;;;;;;;5027242;28;20187;-45
2021/12/07 14:03:46;;;;;;;3.72;1.00;;;;;;;;;;5029060;28;20474;-45
2021/12/07 14:06:13;;;;;;;3.72;1.00;;;;;;;;;;5023238;28;20203;-45
2021/12/07 14:08:39;;;;;;;1.30;1.20;;;;;;;;;;5023030;28;20619;-45
2021/12/07 14:11:05;;;;;;;2.78;1.15;;;;;;;;;;5029057;28;20187;-45
2021/12/07 14:13:31;;;;;;;1.20;1.10;;;;;;;;;;5028922;28;20553;-45
2021/12/07 14:15:57;;;;;;;2.22;1.10;;;;;;;;;;5031004;28;20216;-45
2021/12/07 14:18:24;;;;;;;0.85;0.85;;;;;;;;;;5023795;28;20184;-46
2021/12/07 14:20:58;;;;;;;0.85;0.85;;;;;;;;;;5035253;28;20187;-46
2021/12/07 14:23:24;;;;;;;1.08;0.90;;;;;;;;;;5032827;28;20192;-46
2021/12/07 14:25:52;;;;;;;2.85;1.17;;;;;;;;;;5033906;28;20218;-46
2021/12/07 14:28:28;;;;;;;1.52;1.17;;;;;;;;;;5032542;28;20186;-46
2021/12/07 14:31:00;;;;;;;1.25;1.00;;;;;;;;;;5030777;28;20252;-45
2021/12/07 14:33:26;;;;;;;1.45;0.95;;;;;;;;;;5031601;28;20198;-45
2021/12/07 14:35:52;;;;;;;1.10;1.00;;;;;;;;;;5032469;28;20183;-46
2021/12/07 14:38:18;;;;;;;2.80;1.17;;;;;;;;;;5031828;28;20188;-46
2021/12/07 14:40:44;;;;;;;1.40;1.10;;;;;;;;;;5035146;28;20225;-46
2021/12/07 14:43:11;;;;;;;1.73;1.20;;;;;;;;;;5029680;28;20208;-46
2021/12/07 14:45:37;;;;;;;2.22;1.20;;;;;;;;;;5033366;28;20341;-46
2021/12/07 14:48:04;;;;;;;1.67;1.15;;;;;;;;;;5032519;28;20454;-46
2021/12/07 14:50:30;;;;;;;2.13;1.30;;;;;;;;;;5027796;28;20183;-46
2021/12/07 14:52:56;;;;;;;1.92;1.15;;;;;;;;;;5033953;28;20184;-46
2021/12/07 14:55:22;;;;;;;1.17;1.08;;;;;;;;;;5031122;28;20188;-46
2021/12/07 14:57:48;;;;;;;1.67;1.42;;;;;;;;;;5033545;28;20234;-46
2021/12/07 15:00:15;;;;;;;1.90;1.52;;;;;;;;;;5033828;28;20532;-46
2021/12/07 15:02:41;;;;;;;1.60;1.50;;;;;;;;;;5033758;28;20188;-46
2021/12/07 15:05:09;;;;;;;3.25;1.33;;;;;;;;;;5031329;28;20208;-46
2021/12/07 15:07:37;;;;;;;2.13;1.33;;;;;;;;;;5018457;28;20277;-46
2021/12/07 15:10:07;;;;;;;1.52;1.30;;;;;;;;;;5033203;28;20547;-46
2021/12/07 15:12:40;;;;;;;2.50;1.38;;;;;;;;;;5032595;28;20180;-46
2021/12/07 15:15:07;;;;;;;1.50;1.02;;;;;;;;;;5026940;28;20195;-46
2021/12/07 15:17:33;;;;;;;1.60;1.40;;;;;;;;;;5026598;28;20184;-46
2021/12/07 15:20:00;;;;;;;3.03;1.75;;;;;;;;;;5033980;28;20184;-46
2021/12/07 15:22:27;;;;;;;1.95;1.70;;;;;;;;;;5038448;28;20188;-46
2021/12/07 15:24:53;;;;;;;1.80;1.70;;;;;;;;;;5032314;28;20191;-46
2021/12/07 15:27:21;;;;;;;3.95;1.67;;;;;;;;;;5031581;28;20229;-46
2021/12/07 15:29:50;;;;;;;2.50;1.77;;;;;;;;;;5033549;28;20183;-45
2021/12/07 15:32:16;;;;;;;2.97;1.80;;;;;;;;;;5031498;28;20199;-46
2021/12/07 15:34:43;;;;;;;1.70;1.60;;;;;;;;;;5031531;28;20192;-46
2021/12/07 15:37:15;;;;;;;2.42;1.90;;;;;;;;;;5033576;28;20412;-46
2021/12/07 15:39:42;;;;;;;1.70;1.60;;;;;;;;;;5029049;28;20208;-47
2021/12/07 15:42:13;;;;;;;1.70;1.60;;;;;;;;;;5032225;28;20487;-46
2021/12/07 15:44:41;;;;;;;1.75;1.58;;;;;;;;;;5026076;28;20189;-46
2021/12/07 15:47:18;;;;;;;3.08;1.75;;;;;;;;;;5028989;28;20184;-46
2021/12/07 15:49:50;;;;;;;2.22;1.80;;;;;;;;;;5034060;28;20171;-46
2021/12/07 15:52:17;;;;;;;2.97;2.00;;;;;;;;;;5032402;28;20172;-46
2021/12/07 15:54:56;;;;;;;2.60;1.90;;;;;;;;;;5022799;28;20477;-46
2021/12/07 15:57:22;;;;;;;3.20;1.95;;;;;;;;;;5027513;28;20184;-46
2021/12/07 15:59:56;;;;;;;2.08;1.58;;;;;;;;;;5029196;28;20226;-46
2021/12/07 16:02:22;;;;;;;2.72;1.80;;;;;;;;;;5030581;28;20171;-46
2021/12/07 16:04:48;;;;;;;2.10;1.90;;;;;;;;;;5030757;28;20176;-46
2021/12/07 16:07:23;;;;;;;2.95;2.00;;;;;;;;;;5030963;28;20203;-46
2021/12/07 16:10:10;;;;;;;3.42;1.95;;;;;;;;;;5025763;28;20179;-46
2021/12/07 16:12:36;;;;;;;4.78;2.70;;;;;;;;;;5025184;28;20634;-45
2021/12/07 16:15:20;;;;;;;7.95;3.10;;;;;;;;;;5025054;28;20211;-45
2021/12/07 16:17:54;;;;;;;7.40;3.63;;;;;;;;;;5026268;28;20188;-45
2021/12/07 16:20:20;;;;;;;7.68;3.35;;;;;;;;;;5023274;28;20196;-45
2021/12/07 16:22:46;;;;;;;30.90;14.40;;;;;;;;;;5032165;28;20188;-45
2021/12/07 16:25:12;;;;;;;47.50;21.48;;;;;;;;;;5030448;28;20207;-45
2021/12/07 16:27:38;;;;;;;35.90;16.83;;;;;;;;;;5020023;28;20177;-45
2021/12/07 16:30:06;;;;;;;27.77;12.45;;;;;;;;;;5017933;28;20447;-45
2021/12/07 16:32:32;;;;;;;25.80;12.40;;;;;;;;;;5026960;28;20748;-45